< < Back
Terminal Aerodrome Forecast


Current Version              Previous Versions:   1  2  3  4  5  6  7  8  9  

Terminal Aerodrome Forecast

309
FTAK31 PAJN 181100
TAFAGS
TAF
PAGS 181130Z 1812/1912 33003KT P6SM SCT050 BKN090
     FM182100 33006KT P6SM VCSH BKN040 OVC100
     FM190400 34004KT P6SM -SN BKN040 OVC080
      AMD NOT SKED=

Latest METAR

604
SAUS70 KWBC 181600 RRL
MTRAGS
METAR KAGS 181553Z 00000KT 10SM CLR 09/04 A3018 RMK AO2 SLP220
T00940039


USA.gov is the U.S. government's official web portal to all federal, state and local government web resources and services.